Cartwright, Louisiana
Current Conditions -  °F | °C
As of 4:55 PM on Tuesday 21 Oct 2014 (Local Time) from KRSN Reporting Station
Scattered Clouds Scattered Clouds  
Wind Chill: 76°   Ceiling: Unl
Heat Index: 78°   Visibility: 10mi
Dew Point: 62°   Wind: 6mph
Humidity: 61%   Direction: 350°N
Pressure: 30.05"   Gusts: NA
Location:  32.5237°N, 92.5035°W
Report Text: KRSN 212155Z AUTO 35005KT 10SM SCT040 25/17 A3005 RMK AO2 T02470166
Loading
Personal Weather Stations






























Interactive Weather Map
Tropical Storm Tracking
New forecast layout! Learn more

10-Day Weather Forecast

Advertisements
Track Severe Weather on mobile